createdAt,value
2019-04-28T00:02:22.546Z,63.57
2019-04-28T00:04:51.462Z,62.47
2019-04-28T00:07:21.528Z,64.33
2019-04-28T00:09:51.117Z,63.17
2019-04-28T00:12:21.029Z,64.43
2019-04-28T00:14:51.644Z,60.40
2019-04-28T00:17:21.109Z,63.37
2019-04-28T00:19:51.512Z,61.87
2019-04-28T00:22:27.592Z,59.50
2019-04-28T00:25:01.589Z,58.80
2019-04-28T00:27:31.603Z,58.30
2019-04-28T00:30:01.940Z,57.30
2019-04-28T00:32:30.890Z,56.10
2019-04-28T00:35:02.315Z,55.10
2019-04-28T00:37:32.058Z,56.80
2019-04-28T00:40:01.095Z,52.40
2019-04-28T00:42:31.441Z,51.90
2019-04-28T00:45:01.456Z,51.30
2019-04-28T00:47:31.080Z,50.47
2019-04-28T00:50:01.944Z,52.47
2019-04-28T00:52:31.821Z,49.93
2019-04-28T00:55:01.179Z,52.33
2019-04-28T00:57:31.033Z,50.87
2019-04-28T00:59:59.623Z,51.50
2019-04-28T01:02:31.213Z,48.70
2019-04-28T01:05:01.628Z,50.00
2019-04-28T01:07:31.299Z,53.43
2019-04-28T01:10:01.396Z,51.37
2019-04-28T01:12:31.082Z,51.47
2019-04-28T01:15:01.741Z,50.63
2019-04-28T01:17:31.437Z,51.40
2019-04-28T01:20:10.571Z,50.53
2019-04-28T01:22:40.173Z,48.60
2019-04-28T01:25:10.628Z,50.93
2019-04-28T01:27:40.788Z,53.57
2019-04-28T01:30:11.472Z,49.77
2019-04-28T01:32:53.678Z,52.30
2019-04-28T01:35:22.101Z,52.10
2019-04-28T01:37:50.640Z,51.23
2019-04-28T01:40:20.489Z,56.30
2019-04-28T01:42:49.950Z,55.43
2019-04-28T01:45:20.443Z,53.60
2019-04-28T01:47:50.411Z,51.67
2019-04-28T01:50:20.513Z,51.60
2019-04-28T01:52:49.636Z,50.50
2019-04-28T01:55:19.983Z,52.80
2019-04-28T01:57:49.802Z,54.10
2019-04-28T02:00:25.018Z,54.87
2019-04-28T02:02:50.537Z,56.17
2019-04-28T02:05:19.664Z,56.27
2019-04-28T02:07:48.230Z,58.57
2019-04-28T02:10:16.656Z,55.10
2019-04-28T02:12:45.064Z,55.63
2019-04-28T02:15:13.666Z,59.77
2019-04-28T02:17:42.062Z,54.03
2019-04-28T02:20:10.732Z,52.60
2019-04-28T02:22:40.809Z,61.13
2019-04-28T02:25:09.950Z,54.60
2019-04-28T02:27:40.039Z,57.73
2019-04-28T02:30:11.500Z,57.30
2019-04-28T02:32:40.773Z,56.47
2019-04-28T02:35:10.828Z,57.70
2019-04-28T02:37:40.634Z,60.37
2019-04-28T02:40:10.670Z,62.87
2019-04-28T02:42:40.936Z,62.63
2019-04-28T02:45:11.562Z,61.33
2019-04-28T02:47:41.911Z,59.13
2019-04-28T02:50:17.260Z,58.10
2019-04-28T02:53:01.593Z,57.30
2019-04-28T02:55:31.647Z,59.47
2019-04-28T02:58:01.435Z,61.17
2019-04-28T03:00:31.690Z,58.67
2019-04-28T03:03:01.466Z,64.60
2019-04-28T03:05:32.995Z,64.50
2019-04-28T03:08:01.186Z,65.27
2019-04-28T03:10:30.999Z,65.87
2019-04-28T03:13:01.001Z,62.53
2019-04-28T03:15:30.397Z,63.40
2019-04-28T03:18:01.749Z,70.23
2019-04-28T03:20:30.531Z,68.00
2019-04-28T03:23:00.919Z,64.60
2019-04-28T03:25:33.425Z,64.47
2019-04-28T03:28:05.601Z,70.60
2019-04-28T03:30:43.497Z,67.67
2019-04-28T03:33:13.256Z,67.40
2019-04-28T03:35:44.027Z,65.33
2019-04-28T03:38:10.779Z,63.23
2019-04-28T03:40:41.437Z,67.80
2019-04-28T03:43:10.412Z,66.77
2019-04-28T03:45:44.230Z,66.90
2019-04-28T03:48:12.663Z,63.40
2019-04-28T03:50:41.588Z,68.30
2019-04-28T03:53:11.154Z,68.37
2019-04-28T03:55:41.639Z,60.57
2019-04-28T03:58:10.479Z,70.03
2019-04-28T04:00:40.898Z,63.17
2019-04-28T04:03:10.905Z,65.90
2019-04-28T04:05:40.665Z,67.87
2019-04-28T04:08:10.985Z,68.13
2019-04-28T04:10:50.420Z,64.73
2019-04-28T04:13:20.576Z,68.77
2019-04-28T04:15:54.452Z,69.87
2019-04-28T04:18:30.981Z,70.10
2019-04-28T04:21:00.811Z,70.63
2019-04-28T04:23:30.949Z,69.33
2019-04-28T04:26:01.805Z,73.60
2019-04-28T04:28:30.407Z,72.80
2019-04-28T04:31:02.481Z,68.80
2019-04-28T04:33:31.000Z,73.63
2019-04-28T04:36:01.560Z,70.27
2019-04-28T04:38:31.219Z,70.43
2019-04-28T04:41:01.566Z,70.23
2019-04-28T04:43:31.034Z,74.40
2019-04-28T04:46:14.202Z,72.83
2019-04-28T04:48:44.522Z,75.70
2019-04-28T04:51:12.997Z,76.30
2019-04-28T04:53:42.369Z,77.77
2019-04-28T04:56:10.799Z,72.60
2019-04-28T04:58:40.624Z,78.47
2019-04-28T05:01:13.825Z,72.70
2019-04-28T05:03:43.871Z,74.93
2019-04-28T05:06:30.280Z,69.90
2019-04-28T05:08:59.912Z,78.03
2019-04-28T05:11:29.952Z,82.70
2019-04-28T05:13:59.676Z,70.90
2019-04-28T05:16:29.762Z,75.43
2019-04-28T05:19:00.097Z,79.13
2019-04-28T05:21:32.784Z,77.67
2019-04-28T05:24:17.495Z,73.03
2019-04-28T05:26:49.102Z,75.00
2019-04-28T05:29:21.818Z,75.90
2019-04-28T05:31:50.221Z,74.90
2019-04-28T05:34:18.231Z,74.20
2019-04-28T05:36:46.815Z,71.67
2019-04-28T05:39:15.216Z,69.77
2019-04-28T05:41:43.650Z,71.13
2019-04-28T05:44:12.058Z,72.63
2019-04-28T05:46:40.561Z,72.77
2019-04-28T05:49:10.612Z,72.13
2019-04-28T05:51:52.434Z,71.73
2019-04-28T05:54:22.479Z,78.50
2019-04-28T05:57:02.392Z,71.17
2019-04-28T05:59:47.828Z,71.27
2019-04-28T06:02:33.789Z,68.10
2019-04-28T06:05:02.224Z,68.13
2019-04-28T06:07:44.251Z,77.03
2019-04-28T06:10:12.827Z,68.37
2019-04-28T06:12:41.229Z,71.53
2019-04-28T06:15:11.758Z,68.80
2019-04-28T06:17:39.894Z,66.27
2019-04-28T06:20:11.576Z,69.10
2019-04-28T06:22:38.569Z,66.70
2019-04-28T06:25:07.000Z,61.10
2019-04-28T06:27:35.406Z,65.10
2019-04-28T06:30:05.649Z,61.67
2019-04-28T06:32:34.749Z,64.90
2019-04-28T06:35:03.727Z,60.40
2019-04-28T06:37:32.159Z,61.57
2019-04-28T06:40:00.568Z,64.13
2019-04-28T06:42:29.007Z,61.27
2019-04-28T06:44:57.416Z,65.77
2019-04-28T06:47:25.853Z,65.83
2019-04-28T06:49:54.262Z,58.30
2019-04-28T06:52:22.695Z,60.53
2019-04-28T06:54:51.109Z,59.20
2019-04-28T06:57:19.545Z,57.20
2019-04-28T06:59:47.950Z,55.97
2019-04-28T07:02:16.385Z,56.57
2019-04-28T07:04:44.860Z,57.93
2019-04-28T07:07:13.305Z,56.27
2019-04-28T07:09:41.773Z,58.00
2019-04-28T07:12:10.211Z,56.40
2019-04-28T07:14:38.689Z,57.60
2019-04-28T07:17:07.187Z,56.87
2019-04-28T07:19:35.603Z,55.80
2019-04-28T07:22:08.367Z,54.47
2019-04-28T07:24:36.772Z,52.77
2019-04-28T07:27:06.474Z,53.70
2019-04-28T07:29:34.881Z,53.70
2019-04-28T07:32:03.390Z,52.57
2019-04-28T07:34:31.799Z,51.67
2019-04-28T07:37:00.301Z,48.37
2019-04-28T07:39:28.702Z,47.70
2019-04-28T07:41:57.108Z,53.70
2019-04-28T07:44:25.609Z,45.90
2019-04-28T07:46:54.015Z,48.57
2019-04-28T07:49:22.445Z,49.70
2019-04-28T07:51:52.491Z,49.33
2019-04-28T07:54:22.097Z,47.60
2019-04-28T07:56:50.498Z,53.47
2019-04-28T07:59:18.927Z,48.13
2019-04-28T08:01:48.066Z,52.10
2019-04-28T08:04:16.498Z,49.70
2019-04-28T08:06:44.898Z,44.30
2019-04-28T08:09:14.968Z,50.20
2019-04-28T08:11:43.380Z,46.90
2019-04-28T08:14:11.813Z,47.10
2019-04-28T08:16:40.213Z,48.60
2019-04-28T08:19:08.645Z,45.67
2019-04-28T08:21:37.118Z,49.37
2019-04-28T08:24:05.728Z,48.60
2019-04-28T08:26:36.291Z,44.33
2019-04-28T08:29:04.356Z,43.90
2019-04-28T08:31:49.460Z,42.33
2019-04-28T08:34:19.526Z,44.83
2019-04-28T08:36:47.926Z,45.30
2019-04-28T08:39:16.498Z,45.17
2019-04-28T08:41:44.906Z,45.20
2019-04-28T08:44:13.339Z,43.27
2019-04-28T08:46:41.742Z,44.60
2019-04-28T08:49:10.177Z,44.87
2019-04-28T08:51:38.580Z,42.67
2019-04-28T08:54:07.049Z,45.13
2019-04-28T08:56:35.485Z,40.73
2019-04-28T08:59:05.032Z,42.33
2019-04-28T09:01:33.583Z,41.10
2019-04-28T09:04:14.437Z,43.00
2019-04-28T09:06:32.186Z,42.53
2019-04-28T09:09:00.544Z,41.83
2019-04-28T09:11:28.972Z,40.67
2019-04-28T09:13:57.405Z,40.87
2019-04-28T09:16:25.831Z,39.50
2019-04-28T09:18:54.237Z,41.70
2019-04-28T09:21:22.668Z,46.63
2019-04-28T09:23:51.062Z,43.57
2019-04-28T09:26:19.497Z,41.30
2019-04-28T09:28:47.900Z,41.27
2019-04-28T09:31:16.338Z,42.00
2019-04-28T09:33:45.115Z,43.03
2019-04-28T09:36:13.553Z,41.00
2019-04-28T09:38:41.959Z,41.70
2019-04-28T09:41:10.392Z,39.77
2019-04-28T09:43:56.290Z,39.87
2019-04-28T09:46:29.459Z,42.40
2019-04-28T09:48:57.930Z,41.50
2019-04-28T09:51:26.360Z,42.80
2019-04-28T09:53:54.769Z,41.77
2019-04-28T09:56:23.209Z,41.40
2019-04-28T09:58:51.621Z,42.13
2019-04-28T10:01:20.034Z,40.40
2019-04-28T10:03:48.518Z,41.67
2019-04-28T10:06:16.954Z,40.67
2019-04-28T10:08:45.388Z,40.83
2019-04-28T10:11:13.795Z,43.33
2019-04-28T10:13:42.296Z,39.17
2019-04-28T10:16:10.778Z,42.10
2019-04-28T10:18:39.219Z,38.23
2019-04-28T10:21:07.688Z,39.37
2019-04-28T10:23:36.129Z,41.67
2019-04-28T10:26:04.669Z,41.80
2019-04-28T10:28:33.102Z,39.83
2019-04-28T10:31:01.578Z,42.67
2019-04-28T10:33:30.002Z,40.87
2019-04-28T10:35:58.412Z,42.73
2019-04-28T10:38:26.853Z,40.97
2019-04-28T10:41:02.659Z,40.97
2019-04-28T10:43:31.160Z,42.67
2019-04-28T10:45:59.638Z,47.00
2019-04-28T10:48:28.079Z,41.27
2019-04-28T10:50:56.485Z,40.70
2019-04-28T10:53:24.920Z,40.67
2019-04-28T10:55:53.327Z,41.23
2019-04-28T10:58:21.768Z,40.17
2019-04-28T11:00:50.243Z,41.30
2019-04-28T11:03:18.655Z,42.37
2019-04-28T11:05:47.101Z,44.00
2019-04-28T11:08:19.656Z,40.23
2019-04-28T11:10:48.095Z,40.27
2019-04-28T11:13:16.505Z,40.27
2019-04-28T11:15:45.000Z,40.20
2019-04-28T11:18:13.543Z,41.50
2019-04-28T11:20:41.978Z,40.20
2019-04-28T11:23:10.390Z,41.57
2019-04-28T11:25:38.820Z,41.20
2019-04-28T11:28:07.571Z,42.07
2019-04-28T11:30:36.000Z,39.47
2019-04-28T11:33:11.923Z,40.17
2019-04-28T11:35:41.994Z,40.77
2019-04-28T11:38:10.405Z,40.60
2019-04-28T11:40:38.837Z,39.70
2019-04-28T11:43:07.317Z,38.80
2019-04-28T11:45:35.828Z,44.47
2019-04-28T11:48:04.236Z,39.30
2019-04-28T11:50:32.675Z,41.43
2019-04-28T11:53:01.079Z,41.33
2019-04-28T11:55:29.517Z,38.67
2019-04-28T11:57:57.926Z,40.43
2019-04-28T12:00:28.068Z,40.90
2019-04-28T12:02:56.474Z,39.00
2019-04-28T12:05:34.374Z,44.10
2019-04-28T12:07:56.754Z,40.27
2019-04-28T12:10:26.828Z,38.70
2019-04-28T12:13:11.898Z,38.97
2019-04-28T12:15:53.860Z,40.70
2019-04-28T12:18:40.317Z,39.17
2019-04-28T12:21:08.827Z,43.90
2019-04-28T12:23:37.232Z,39.30
2019-04-28T12:26:05.732Z,38.97
2019-04-28T12:28:34.136Z,41.53
2019-04-28T12:31:02.572Z,38.60
2019-04-28T12:33:30.988Z,39.07
2019-04-28T12:35:59.421Z,38.80
2019-04-28T12:38:27.836Z,41.17
2019-04-28T12:40:56.271Z,45.27
2019-04-28T12:43:24.676Z,39.80
2019-04-28T12:45:53.108Z,38.83
2019-04-28T12:48:21.516Z,38.53
2019-04-28T12:50:51.591Z,40.90
2019-04-28T12:53:20.002Z,40.27
2019-04-28T12:55:48.505Z,42.37
2019-04-28T12:58:16.915Z,42.57
2019-04-28T13:00:52.790Z,52.10
2019-04-28T13:03:37.918Z,41.50
2019-04-28T13:06:10.789Z,41.27
2019-04-28T13:08:39.198Z,43.03
2019-04-28T13:11:07.672Z,42.17
2019-04-28T13:13:36.109Z,42.57
2019-04-28T13:16:04.596Z,44.13
2019-04-28T13:18:33.017Z,42.80
2019-04-28T13:21:01.426Z,43.87
2019-04-28T13:23:29.934Z,44.30
2019-04-28T13:25:58.489Z,44.30
2019-04-28T13:28:26.931Z,43.77
2019-04-28T13:30:55.411Z,45.50
2019-04-28T13:33:23.844Z,46.90
2019-04-28T13:35:52.247Z,46.83
2019-04-28T13:38:20.674Z,45.50
2019-04-28T13:40:49.080Z,44.40
2019-04-28T13:43:17.527Z,45.40
2019-04-28T13:45:46.006Z,43.80
2019-04-28T13:48:14.433Z,44.77
2019-04-28T13:50:42.839Z,42.57
2019-04-28T13:53:11.348Z,45.40
2019-04-28T13:55:47.223Z,43.73
2019-04-28T13:58:17.460Z,44.73
2019-04-28T14:00:47.608Z,42.87
2019-04-28T14:03:34.093Z,43.67
2019-04-28T14:06:04.172Z,42.03
2019-04-28T14:08:32.581Z,45.00
2019-04-28T14:11:00.984Z,42.77
2019-04-28T14:13:29.430Z,43.83
2019-04-28T14:15:57.838Z,43.07
2019-04-28T14:18:26.274Z,46.90
2019-04-28T14:20:54.683Z,44.83
2019-04-28T14:23:23.108Z,44.67
2019-04-28T14:25:51.585Z,43.50
2019-04-28T14:28:20.063Z,46.30
2019-04-28T14:30:48.489Z,43.30
2019-04-28T14:33:16.864Z,44.40
2019-04-28T14:35:45.296Z,42.53
2019-04-28T14:38:13.748Z,40.50
2019-04-28T14:40:42.200Z,44.37
2019-04-28T14:43:10.619Z,42.53
2019-04-28T14:45:39.040Z,41.27
2019-04-28T14:48:07.446Z,41.50
2019-04-28T14:50:35.879Z,42.80
2019-04-28T14:53:04.306Z,43.37
2019-04-28T14:55:32.741Z,43.50
2019-04-28T14:58:01.133Z,41.00
2019-04-28T15:00:31.201Z,42.13
2019-04-28T15:03:03.676Z,42.97
2019-04-28T15:05:34.119Z,43.37
2019-04-28T15:08:12.914Z,41.07
2019-04-28T15:10:45.476Z,40.67
2019-04-28T15:13:13.917Z,42.30
2019-04-28T15:15:42.441Z,40.97
2019-04-28T15:18:10.867Z,40.43
2019-04-28T15:20:39.345Z,40.60
2019-04-28T15:23:07.832Z,40.13
2019-04-28T15:25:36.258Z,41.40
2019-04-28T15:28:04.732Z,41.30
2019-04-28T15:30:33.176Z,39.27
2019-04-28T15:33:01.574Z,43.23
2019-04-28T15:35:29.979Z,39.40
2019-04-28T15:37:58.411Z,41.00
2019-04-28T15:40:26.818Z,40.70
2019-04-28T15:42:55.255Z,40.07
2019-04-28T15:45:23.667Z,40.83
2019-04-28T15:47:52.301Z,39.90
2019-04-28T15:50:20.686Z,41.97
2019-04-28T15:52:49.125Z,39.97
2019-04-28T15:55:19.170Z,40.03
2019-04-28T15:57:47.609Z,39.30
2019-04-28T16:00:16.085Z,39.47
2019-04-28T16:02:44.526Z,43.57
2019-04-28T16:05:13.108Z,42.57
2019-04-28T16:07:41.539Z,40.83
2019-04-28T16:10:10.020Z,40.10
2019-04-28T16:12:38.454Z,40.67
2019-04-28T16:15:07.620Z,41.83
2019-04-28T16:17:36.104Z,40.47
2019-04-28T16:20:06.268Z,44.30
2019-04-28T16:22:34.699Z,40.83
2019-04-28T16:25:03.571Z,41.70
2019-04-28T16:27:32.010Z,40.77
2019-04-28T16:30:00.417Z,40.77
2019-04-28T16:32:28.854Z,40.37
2019-04-28T16:34:57.267Z,39.80
2019-04-28T16:37:38.152Z,40.37
2019-04-28T16:39:55.835Z,39.57
2019-04-28T16:42:24.266Z,40.73
2019-04-28T16:44:52.678Z,39.40
2019-04-28T16:47:21.113Z,41.40
2019-04-28T16:49:49.522Z,40.27
2019-04-28T16:52:17.963Z,40.10
2019-04-28T16:54:48.013Z,40.23
2019-04-28T16:57:27.036Z,39.80
2019-04-28T16:59:57.087Z,41.70
2019-04-28T17:02:30.088Z,40.30
2019-04-28T17:04:58.506Z,42.40
2019-04-28T17:07:27.009Z,41.43
2019-04-28T17:09:55.418Z,41.30
2019-04-28T17:12:23.826Z,41.63
2019-04-28T17:14:52.327Z,49.87
2019-04-28T17:17:20.750Z,41.90
2019-04-28T17:19:49.177Z,40.30
2019-04-28T17:22:17.658Z,41.60
2019-04-28T17:24:46.092Z,42.53
2019-04-28T17:27:14.502Z,39.57
2019-04-28T17:29:43.002Z,41.30
2019-04-28T17:32:11.401Z,41.10
2019-04-28T17:34:39.839Z,40.17
2019-04-28T17:37:08.616Z,42.00
2019-04-28T17:39:37.116Z,40.77
2019-04-28T17:42:05.866Z,40.43
2019-04-28T17:44:34.295Z,43.10
2019-04-28T17:47:02.710Z,40.47
2019-04-28T17:49:32.855Z,42.10
2019-04-28T17:52:01.430Z,41.10
2019-04-28T17:54:29.861Z,42.40
2019-04-28T17:56:58.265Z,45.87
2019-04-28T17:59:26.700Z,42.27
2019-04-28T18:02:08.493Z,42.40
2019-04-28T18:04:44.331Z,39.47
2019-04-28T18:07:16.826Z,40.87
2019-04-28T18:09:45.265Z,41.70
2019-04-28T18:12:13.671Z,40.10
2019-04-28T18:14:43.870Z,42.17
2019-04-28T18:17:16.642Z,41.20
2019-04-28T18:19:45.061Z,41.03
2019-04-28T18:22:13.477Z,40.53
2019-04-28T18:24:41.907Z,40.10
2019-04-28T18:27:10.314Z,40.33
2019-04-28T18:29:38.748Z,40.10
2019-04-28T18:32:08.791Z,40.57
2019-04-28T18:34:41.827Z,43.77
2019-04-28T18:37:17.590Z,42.50
2019-04-28T18:40:03.925Z,41.30
2019-04-28T18:42:49.351Z,41.53
2019-04-28T18:45:18.428Z,41.97
2019-04-28T18:47:46.900Z,41.13
2019-04-28T18:50:15.329Z,42.10
2019-04-28T18:52:43.808Z,41.23
2019-04-28T18:55:13.003Z,43.47
2019-04-28T18:57:41.405Z,42.00
2019-04-28T19:00:09.973Z,44.83
2019-04-28T19:02:45.923Z,47.33
2019-04-28T19:05:14.490Z,43.80
2019-04-28T19:07:44.534Z,42.60
2019-04-28T19:10:20.695Z,43.37
2019-04-28T19:12:53.543Z,44.60
2019-04-28T19:15:39.031Z,44.50
2019-04-28T19:18:11.772Z,44.30
2019-04-28T19:20:40.220Z,43.13
2019-04-28T19:23:08.624Z,42.60
2019-04-28T19:25:37.034Z,42.57
2019-04-28T19:28:05.468Z,47.70
2019-04-28T19:30:33.870Z,42.40
2019-04-28T19:33:02.305Z,42.70
2019-04-28T19:35:30.707Z,41.83
2019-04-28T19:37:59.137Z,42.10
2019-04-28T19:40:27.545Z,43.10
2019-04-28T19:42:55.968Z,43.77
2019-04-28T19:45:24.375Z,48.20
2019-04-28T19:47:52.800Z,42.50
2019-04-28T19:50:21.203Z,42.57
2019-04-28T19:52:49.637Z,45.37
2019-04-28T19:55:19.685Z,43.93
2019-04-28T19:57:55.385Z,42.93
2019-04-28T20:00:37.521Z,42.40
2019-04-28T20:03:05.950Z,42.07
2019-04-28T20:05:34.354Z,41.27
2019-04-28T20:08:02.861Z,40.80
2019-04-28T20:10:31.330Z,44.10
2019-04-28T20:12:59.770Z,41.77
2019-04-28T20:15:28.164Z,41.83
2019-04-28T20:17:56.594Z,45.53
2019-04-28T20:20:24.998Z,42.80
2019-04-28T20:22:53.426Z,42.50
2019-04-28T20:25:21.826Z,43.13
2019-04-28T20:27:50.262Z,44.77
2019-04-28T20:30:18.835Z,44.47
2019-04-28T20:32:47.266Z,43.20
2019-04-28T20:35:17.581Z,43.87
2019-04-28T20:37:47.622Z,43.70
2019-04-28T20:40:17.691Z,46.17
2019-04-28T20:42:56.908Z,41.47
2019-04-28T20:45:25.379Z,44.33
2019-04-28T20:47:53.779Z,44.60
2019-04-28T20:50:22.208Z,43.97
2019-04-28T20:52:50.615Z,44.40
2019-04-28T20:55:19.037Z,42.10
2019-04-28T20:57:47.438Z,43.03
2019-04-28T21:00:16.007Z,43.00
2019-04-28T21:02:44.413Z,42.60
2019-04-28T21:05:12.916Z,41.67
2019-04-28T21:07:41.316Z,42.27
2019-04-28T21:10:09.882Z,42.93
2019-04-28T21:12:38.284Z,45.60
2019-04-28T21:15:07.189Z,44.07
2019-04-28T21:17:35.564Z,45.07
2019-04-28T21:20:06.776Z,46.40
2019-04-28T21:22:35.193Z,43.23
2019-04-28T21:25:05.064Z,44.40
2019-04-28T21:27:33.460Z,48.80
2019-04-28T21:30:01.896Z,47.17
2019-04-28T21:32:30.297Z,44.00
2019-04-28T21:34:58.735Z,44.37
2019-04-28T21:37:27.129Z,44.13
2019-04-28T21:39:55.557Z,45.07
2019-04-28T21:42:25.600Z,45.63
2019-04-28T21:45:10.593Z,47.10
2019-04-28T21:47:40.768Z,45.37
2019-04-28T21:50:10.731Z,51.27
2019-04-28T21:52:39.135Z,44.40
2019-04-28T21:55:07.641Z,45.20
2019-04-28T21:57:36.105Z,44.97
2019-04-28T22:00:09.171Z,45.50
2019-04-28T22:02:37.641Z,46.20
2019-04-28T22:05:07.207Z,45.93
2019-04-28T22:07:35.608Z,45.50
2019-04-28T22:10:05.995Z,46.77
2019-04-28T22:12:34.399Z,45.93
2019-04-28T22:15:02.805Z,46.13
2019-04-28T22:17:31.239Z,49.23
2019-04-28T22:19:59.647Z,45.47
2019-04-28T22:22:28.081Z,45.57
2019-04-28T22:24:58.126Z,45.73
2019-04-28T22:27:28.192Z,49.20
2019-04-28T22:29:56.600Z,46.80
2019-04-28T22:32:25.020Z,45.77
2019-04-28T22:34:53.428Z,47.30
2019-04-28T22:37:21.861Z,46.80
2019-04-28T22:39:50.263Z,50.33
2019-04-28T22:42:18.692Z,48.40
2019-04-28T22:44:47.118Z,48.20
2019-04-28T22:47:15.527Z,48.00
2019-04-28T22:49:43.936Z,46.77
2019-04-28T22:52:12.369Z,46.37
2019-04-28T22:54:51.264Z,47.63
2019-04-28T22:57:39.708Z,47.13
2019-04-28T23:00:11.289Z,47.93
2019-04-28T23:02:39.718Z,47.63
2019-04-28T23:05:09.060Z,51.10
2019-04-28T23:07:37.496Z,54.67
2019-04-28T23:10:07.249Z,50.07
2019-04-28T23:12:35.671Z,50.43
2019-04-28T23:15:06.253Z,48.90
2019-04-28T23:17:34.759Z,49.50
2019-04-28T23:20:04.601Z,46.80
2019-04-28T23:22:46.711Z,52.53
2019-04-28T23:25:07.865Z,50.50
2019-04-28T23:27:36.294Z,47.47
2019-04-28T23:30:06.833Z,47.57
2019-04-28T23:32:35.265Z,51.33
2019-04-28T23:35:04.412Z,53.47
2019-04-28T23:37:32.845Z,50.70
2019-04-28T23:40:01.254Z,48.30
2019-04-28T23:42:31.297Z,51.83
2019-04-28T23:44:59.731Z,52.73
2019-04-28T23:47:28.135Z,52.53
2019-04-28T23:49:56.939Z,52.63
2019-04-28T23:52:41.867Z,50.20
2019-04-28T23:55:10.739Z,48.30
2019-04-28T23:57:39.147Z,48.23
